Time;durP1;ratioP1;P1;durP2;ratioP2;P2;SDS_P1;SDS_P2;PMS_P1;PMS_P2;Temp;Humidity;BMP_temperature;BMP_pressure;BME280_temperature;BME280_humidity;BME280_pressure;Samples;Min_cycle;Max_cycle;Signal;HPM_P1;HPM_P2
2023/04/09 00:00:40;;;;;;;;;;;;;;;;;;137478;1273;22486;-82
2023/04/09 00:04:02;;;;;;;;;;;;;;;;;;137538;1273;22778;-82
2023/04/09 00:07:05;;;;;;;;;;;;;;;;;;137531;1273;22519;-82
2023/04/09 00:10:07;;;;;;;;;;;;;;;;;;137466;1273;22584;-82
2023/04/09 00:13:09;;;;;;;;;;;;;;;;;;137489;1273;22486;-82
2023/04/09 00:16:12;;;;;;;;;;;;;;;;;;137355;1273;22930;-82
2023/04/09 00:19:14;;;;;;;;;;;;;;;;;;137597;1273;22748;-82
2023/04/09 00:22:17;;;;;;;;;;;;;;;;;;137455;1273;22981;-82
2023/04/09 00:25:19;;;;;;;;;;;;;;;;;;137537;1273;22567;-82
2023/04/09 00:28:22;;;;;;;;;;;;;;;;;;137494;1273;22511;-82
2023/04/09 00:31:24;;;;;;;;;;;;;;;;;;137489;1273;22537;-82
2023/04/09 00:34:27;;;;;;;;;;;;;;;;;;137384;1273;22586;-82
2023/04/09 00:37:29;;;;;;;;;;;;;;;;;;137477;1273;22552;-81
2023/04/09 00:40:32;;;;;;;;;;;;;;;;;;137566;1273;22509;-81
2023/04/09 00:43:35;;;;;;;;;;;;;;;;;;137448;1273;22542;-82
2023/04/09 00:46:37;;;;;;;;;;;;;;;;;;137489;1273;25511;-81
2023/04/09 00:49:39;;;;;;;;;;;;;;;;;;137457;1274;22526;-82
2023/04/09 00:52:42;;;;;;;;;;;;;;;;;;137605;1273;22831;-82
2023/04/09 00:55:44;;;;;;;;;;;;;;;;;;137443;1273;22500;-82
2023/04/09 00:58:47;;;;;;;;;;;;;;;;;;137449;1272;22525;-82
2023/04/09 01:01:49;;;;;;;;;;;;;;;;;;137563;1272;22471;-82
2023/04/09 01:04:52;;;;;;;;;;;;;;;;;;137404;1272;22515;-81
2023/04/09 01:07:54;;;;;;;;;;;;;;;;;;137472;1272;22541;-82
2023/04/09 01:10:56;;;;;;;;;;;;;;;;;;137525;1272;22552;-81
2023/04/09 01:13:59;;;;;;;;;;;;;;;;;;137459;1272;22498;-81
2023/04/09 01:17:01;;;;;;;;;;;;;;;;;;137536;1272;22537;-81
2023/04/09 01:20:04;;;;;;;;;;;;;;;;;;137464;1272;22497;-81
2023/04/09 01:23:06;;;;;;;;;;;;;;;;;;137491;1272;22485;-82
2023/04/09 01:26:09;;;;;;;;;;;;;;;;;;137497;1272;22532;-81
2023/04/09 01:29:11;;;;;;;;;;;;;;;;;;137354;1272;22525;-82
2023/04/09 01:32:14;;;;;;;;;;;;;;;;;;137413;1272;22529;-82
2023/04/09 01:35:16;;;;;;;;;;;;;;;;;;137470;1272;22559;-81
2023/04/09 01:38:19;;;;;;;;;;;;;;;;;;137412;1272;22514;-82
2023/04/09 01:41:21;;;;;;;;;;;;;;;;;;137529;1272;22696;-82
2023/04/09 01:44:23;;;;;;;;;;;;;;;;;;137393;1272;22590;-82
2023/04/09 01:47:26;;;;;;;;;;;;;;;;;;137468;1261;22542;-82
2023/04/09 01:50:29;;;;;;;;;;;;;;;;;;137370;1272;22556;-82
2023/04/09 01:53:31;;;;;;;;;;;;;;;;;;137583;1272;22495;-82
2023/04/09 01:56:34;;;;;;;;;;;;;;;;;;137510;1272;22550;-82
2023/04/09 01:59:36;;;;;;;;;;;;;;;;;;137240;1272;22517;-81
2023/04/09 02:02:39;;;;;;;;;;;;;;;;;;137459;1272;22569;-81
2023/04/09 02:05:41;;;;;;;;;;;;;;;;;;137290;1272;22493;-82
2023/04/09 02:08:44;;;;;;;;;;;;;;;;;;137544;1272;22493;-82
2023/04/09 02:11:46;;;;;;;;;;;;;;;;;;137591;1272;22490;-82
2023/04/09 02:14:49;;;;;;;;;;;;;;;;;;137419;1271;22566;-82
2023/04/09 02:17:52;;;;;;;;;;;;;;;;;;137603;1272;22543;-81
2023/04/09 02:20:54;;;;;;;;;;;;;;;;;;137554;1272;22565;-81
2023/04/09 02:23:58;;;;;;;;;;;;;;;;;;137407;1272;22491;-82
2023/04/09 02:27:01;;;;;;;;;;;;;;;;;;137510;1272;22500;-82
2023/04/09 02:30:04;;;;;;;;;;;;;;;;;;137558;1272;22510;-82
2023/04/09 02:33:06;;;;;;;;;;;;;;;;;;137591;1272;22500;-82
2023/04/09 02:36:09;;;;;;;;;;;;;;;;;;137481;1272;22595;-82
2023/04/09 02:39:12;;;;;;;;;;;;;;;;;;137450;1272;22520;-82
2023/04/09 02:42:15;;;;;;;;;;;;;;;;;;137453;1272;22509;-82
2023/04/09 02:45:20;;;;;;;;;;;;;;;;;;137327;1272;22519;-82
2023/04/09 02:48:25;;;;;;;;;;;;;;;;;;136986;1272;22540;-82
2023/04/09 02:51:28;;;;;;;;;;;;;;;;;;137496;1272;22561;-82
2023/04/09 02:54:30;;;;;;;;;;;;;;;;;;137618;1272;22533;-82
2023/04/09 02:57:33;;;;;;;;;;;;;;;;;;137503;1272;22544;-82
2023/04/09 03:00:35;;;;;;;;;;;;;;;;;;137648;1272;22526;-83
2023/04/09 03:03:40;;;;;;;;;;;;;;;;;;137501;1272;22554;-82
2023/04/09 03:06:43;;;;;;;;;;;;;;;;;;137431;1272;22486;-82
2023/04/09 03:09:46;;;;;;;;;;;;;;;;;;137649;1272;22332;-82
2023/04/09 03:12:48;;;;;;;;;;;;;;;;;;137608;1272;22283;-82
2023/04/09 03:15:51;;;;;;;;;;;;;;;;;;137398;1273;22624;-83
2023/04/09 03:18:54;;;;;;;;;;;;;;;;;;137653;1272;22343;-82
2023/04/09 03:21:56;;;;;;;;;;;;;;;;;;137467;1272;22524;-82
2023/04/09 03:24:59;;;;;;;;;;;;;;;;;;137405;1272;22565;-82
2023/04/09 03:28:02;;;;;;;;;;;;;;;;;;137574;1272;22510;-82
2023/04/09 03:31:04;;;;;;;;;;;;;;;;;;137498;1272;22505;-81
2023/04/09 03:34:07;;;;;;;;;;;;;;;;;;137552;1272;22496;-82
2023/04/09 03:37:09;;;;;;;;;;;;;;;;;;137527;1272;22510;-82
2023/04/09 03:40:12;;;;;;;;;;;;;;;;;;137636;1272;22378;-82
2023/04/09 03:43:14;;;;;;;;;;;;;;;;;;137560;1272;22963;-82
2023/04/09 03:46:17;;;;;;;;;;;;;;;;;;137616;1272;22501;-82
2023/04/09 03:49:19;;;;;;;;;;;;;;;;;;137620;1272;22763;-82
2023/04/09 03:52:21;;;;;;;;;;;;;;;;;;137568;1272;22497;-82
2023/04/09 03:55:24;;;;;;;;;;;;;;;;;;137622;1272;22389;-82
2023/04/09 03:58:29;;;;;;;;;;;;;;;;;;137506;1272;22526;-82
2023/04/09 04:01:31;;;;;;;;;;;;;;;;;;137332;1272;22831;-83
2023/04/09 04:04:33;;;;;;;;;;;;;;;;;;137332;1272;22499;-81
2023/04/09 04:07:36;;;;;;;;;;;;;;;;;;137602;1272;22749;-81
2023/04/09 04:10:38;;;;;;;;;;;;;;;;;;137428;1272;25381;-80
2023/04/09 04:13:40;;;;;;;;;;;;;;;;;;137454;1272;25682;-80
2023/04/09 04:16:43;;;;;;;;;;;;;;;;;;137522;1272;23068;-81
2023/04/09 04:19:45;;;;;;;;;;;;;;;;;;137582;1272;22518;-81
2023/04/09 04:22:48;;;;;;;;;;;;;;;;;;137612;1272;22297;-82
2023/04/09 04:25:51;;;;;;;;;;;;;;;;;;137537;1272;22582;-81
2023/04/09 04:28:54;;;;;;;;;;;;;;;;;;137411;1272;22537;-81
2023/04/09 04:31:56;;;;;;;;;;;;;;;;;;137499;1272;22562;-82
2023/04/09 04:34:59;;;;;;;;;;;;;;;;;;137514;1272;22949;-81
2023/04/09 04:38:01;;;;;;;;;;;;;;;;;;137541;1272;22481;-81
2023/04/09 04:41:04;;;;;;;;;;;;;;;;;;137603;1272;23116;-81
2023/04/09 04:44:06;;;;;;;;;;;;;;;;;;137573;1272;22505;-81
2023/04/09 04:47:08;;;;;;;;;;;;;;;;;;137528;1272;22516;-82
2023/04/09 04:50:14;;;;;;;;;;;;;;;;;;137136;1272;22519;-85
2023/04/09 04:53:16;;;;;;;;;;;;;;;;;;137323;1272;22510;-83
2023/04/09 04:56:22;;;;;;;;;;;;;;;;;;137142;1272;23002;-83
2023/04/09 04:59:24;;;;;;;;;;;;;;;;;;137349;1272;22533;-83
2023/04/09 05:02:27;;;;;;;;;;;;;;;;;;137432;1273;22505;-83
2023/04/09 05:05:29;;;;;;;;;;;;;;;;;;137317;1272;22660;-83
2023/04/09 05:08:31;;;;;;;;;;;;;;;;;;137195;1272;22538;-83
2023/04/09 05:12:02;;;;;;;;;;;;;;;;;;132410;1313;544298;-84
2023/04/09 05:18:48;;;;;;;;;;;;;;;;;;135776;1292;22570;-84
2023/04/09 05:21:50;;;;;;;;;;;;;;;;;;135955;1293;22594;-86
2023/04/09 05:24:53;;;;;;;;;;;;;;;;;;136132;1281;180977;-84
2023/04/09 05:27:56;;;;;;;;;;;;;;;;;;136376;1281;22618;-84
2023/04/09 05:30:58;;;;;;;;;;;;;;;;;;136724;1281;22504;-85
2023/04/09 05:34:01;;;;;;;;;;;;;;;;;;136333;1281;22520;-84
2023/04/09 05:37:04;;;;;;;;;;;;;;;;;;136263;1281;22543;-84
2023/04/09 05:40:06;;;;;;;;;;;;;;;;;;136740;1281;22620;-80
2023/04/09 05:43:08;;;;;;;;;;;;;;;;;;136399;1281;22529;-82
2023/04/09 05:46:11;;;;;;;;;;;;;;;;;;136432;1281;22492;-82
2023/04/09 05:49:13;;;;;;;;;;;;;;;;;;136724;1281;22547;-82
2023/04/09 05:52:16;;;;;;;;;;;;;;;;;;136401;1281;22996;-80
2023/04/09 05:55:19;;;;;;;;;;;;;;;;;;136748;1276;22514;-80
2023/04/09 05:58:21;;;;;;;;;;;;;;;;;;137006;1276;22536;-80
2023/04/09 06:01:24;;;;;;;;;;;;;;;;;;137207;1276;22488;-79
2023/04/09 06:04:26;;;;;;;;;;;;;;;;;;136972;1276;22999;-79
2023/04/09 06:07:28;;;;;;;;;;;;;;;;;;136887;1276;22920;-79
2023/04/09 06:10:31;;;;;;;;;;;;;;;;;;137153;1276;23101;-80
2023/04/09 06:13:33;;;;;;;;;;;;;;;;;;137254;1276;22516;-81
2023/04/09 06:16:36;;;;;;;;;;;;;;;;;;137190;1269;22537;-80
2023/04/09 06:19:38;;;;;;;;;;;;;;;;;;137236;1276;23083;-80
2023/04/09 06:22:41;;;;;;;;;;;;;;;;;;137077;1276;22501;-80
2023/04/09 06:25:43;;;;;;;;;;;;;;;;;;137336;1277;22266;-81
2023/04/09 06:28:46;;;;;;;;;;;;;;;;;;137157;1277;22925;-81
2023/04/09 06:31:48;;;;;;;;;;;;;;;;;;137245;1277;22548;-81
2023/04/09 06:34:51;;;;;;;;;;;;;;;;;;137300;1277;22502;-81
2023/04/09 06:37:53;;;;;;;;;;;;;;;;;;137226;1277;22549;-81
2023/04/09 06:40:55;;;;;;;;;;;;;;;;;;137258;1277;22496;-81
2023/04/09 06:43:58;;;;;;;;;;;;;;;;;;137180;1277;22548;-81
2023/04/09 06:47:01;;;;;;;;;;;;;;;;;;137306;1277;22346;-81
2023/04/09 06:50:03;;;;;;;;;;;;;;;;;;137274;1277;22341;-81
2023/04/09 06:53:05;;;;;;;;;;;;;;;;;;137238;1277;23122;-80
2023/04/09 06:56:08;;;;;;;;;;;;;;;;;;137231;1277;22575;-80
2023/04/09 06:59:10;;;;;;;;;;;;;;;;;;137275;1277;22496;-80
2023/04/09 07:02:13;;;;;;;;;;;;;;;;;;137288;1277;22993;-80
2023/04/09 07:05:15;;;;;;;;;;;;;;;;;;137177;1277;22620;-81
2023/04/09 07:08:18;;;;;;;;;;;;;;;;;;137162;1277;22781;-80
2023/04/09 07:11:20;;;;;;;;;;;;;;;;;;137266;1277;22508;-80
2023/04/09 07:14:22;;;;;;;;;;;;;;;;;;137238;1272;22565;-80
2023/04/09 07:17:25;;;;;;;;;;;;;;;;;;137305;1265;22289;-80
2023/04/09 07:20:27;;;;;;;;;;;;;;;;;;137250;1277;23122;-80
2023/04/09 07:23:30;;;;;;;;;;;;;;;;;;137171;1277;22334;-80
2023/04/09 07:26:32;;;;;;;;;;;;;;;;;;137244;1277;22800;-80
2023/04/09 07:29:35;;;;;;;;;;;;;;;;;;137293;1277;22479;-81
2023/04/09 07:32:37;;;;;;;;;;;;;;;;;;137231;1277;22811;-80
2023/04/09 07:35:40;;;;;;;;;;;;;;;;;;137213;1277;22546;-80
2023/04/09 07:38:43;;;;;;;;;;;;;;;;;;137309;1277;22752;-80
2023/04/09 07:41:46;;;;;;;;;;;;;;;;;;137131;1277;22543;-81
2023/04/09 07:44:48;;;;;;;;;;;;;;;;;;137147;1277;22841;-80
2023/04/09 07:47:51;;;;;;;;;;;;;;;;;;137222;1277;23004;-80
2023/04/09 07:50:53;;;;;;;;;;;;;;;;;;137213;1277;22498;-81
2023/04/09 07:53:55;;;;;;;;;;;;;;;;;;137219;1277;22556;-80
2023/04/09 07:56:58;;;;;;;;;;;;;;;;;;137249;1277;23076;-80
2023/04/09 08:00:01;;;;;;;;;;;;;;;;;;137224;1273;22542;-80
2023/04/09 08:03:03;;;;;;;;;;;;;;;;;;137258;1277;22488;-80
2023/04/09 08:06:06;;;;;;;;;;;;;;;;;;137329;1277;22493;-80
2023/04/09 08:09:08;;;;;;;;;;;;;;;;;;137256;1277;22502;-80
2023/04/09 08:12:10;;;;;;;;;;;;;;;;;;137218;1277;22508;-79
2023/04/09 08:15:13;;;;;;;;;;;;;;;;;;137302;1277;22545;-80
2023/04/09 08:18:15;;;;;;;;;;;;;;;;;;137253;1277;22608;-79
2023/04/09 08:21:18;;;;;;;;;;;;;;;;;;137252;1277;22630;-79
2023/04/09 08:24:20;;;;;;;;;;;;;;;;;;137255;1277;22550;-80
2023/04/09 08:27:23;;;;;;;;;;;;;;;;;;137379;1277;22583;-79
2023/04/09 08:30:25;;;;;;;;;;;;;;;;;;137029;1277;22486;-80
2023/04/09 08:33:28;;;;;;;;;;;;;;;;;;137267;1277;22577;-80
2023/04/09 08:36:31;;;;;;;;;;;;;;;;;;137255;1277;22545;-79
2023/04/09 08:39:35;;;;;;;;;;;;;;;;;;137167;1277;22929;-79
2023/04/09 08:42:37;;;;;;;;;;;;;;;;;;137243;1277;22821;-80
2023/04/09 08:45:39;;;;;;;;;;;;;;;;;;137286;1277;22513;-80
2023/04/09 08:48:42;;;;;;;;;;;;;;;;;;137302;1277;22678;-80
2023/04/09 08:51:45;;;;;;;;;;;;;;;;;;137240;1277;22949;-80
2023/04/09 08:54:47;;;;;;;;;;;;;;;;;;137263;1277;22484;-80
